Elbow Lake, Minnesota
Current Conditions -  °F | °C
As of 3:54 AM on Sunday 23 Nov 2014 (Local Time) from KFFM Reporting Station
Haze Haze  
Wind Chill: -1°   Ceiling: Unl
Heat Index:   Visibility: 4mi
Dew Point:   Wind: 5mph
Humidity: 93%   Direction: 230°SW
Pressure: 29.43"   Gusts: NA
Location:  45.99°N, 95.98°W
Report Text: KFFM 230954Z AUTO 23004KT 4SM BR CLR 01/00 A2943 RMK AO2
Loading
Personal Weather Stations






























Interactive Weather Map New forecast layout! Learn more

10-Day Weather Forecast

Advertisements
Track Severe Weather on mobile